Terminal Aerodrome Forecast
Issued by NWS Charleston, WV

Current Version | Previous Version | Graphics & Text | Print | Product List | Glossary On
Versions: 1 2 3 4 5 6 7 8 9 10 11 12 13 14 15 16 17 18 19 20 21 22 23 24 25 26 27 28 29 30 31 32
827
FTUS41 KRLX 011133
TAFHTS
TAF
KHTS 011133Z 0112/0212 00000KT 1/4SM FG BKN001
     FM011300 VRB02KT 1/2SM FG OVC002
     FM011400 VRB02KT 4SM BR BKN050
     FM011500 VRB03KT P6SM BKN050
     FM020700 VRB02KT 3SM BR BKN015=

USA.gov is the U.S. government's official web portal to all federal, state and local government web resources and services.